Time;durP1;ratioP1;P1;durP2;ratioP2;P2;SDS_P1;SDS_P2;PMS_P1;PMS_P2;Temp;Humidity;BMP_temperature;BMP_pressure;BME280_temperature;BME280_humidity;BME280_pressure;Samples;Min_cycle;Max_cycle;Signal;HPM_P1;HPM_P2
2022/08/01 00:00:21;;;;;;;;;;;;;;;23.21;47.69;98898.72;2619586;54;20042;-67
2022/08/01 00:02:51;;;;;;;;;;;;;;;23.16;48.44;98898.72;2619725;54;19939;-67
2022/08/01 00:05:23;;;;;;;;;;;;;;;23.10;48.11;98907.09;2619555;54;19959;-67
2022/08/01 00:07:52;;;;;;;;;;;;;;;23.10;48.53;98899.81;2619026;54;19946;-67
2022/08/01 00:10:22;;;;;;;;;;;;;;;23.03;48.37;98896.59;2619309;54;19942;-67
2022/08/01 00:12:51;;;;;;;;;;;;;;;22.98;49.20;98905.50;2620326;39;20024;-67
2022/08/01 00:15:21;;;;;;;;;;;;;;;22.96;49.27;98904.16;2619885;54;19950;-67
2022/08/01 00:17:50;;;;;;;;;;;;;;;22.95;49.12;98902.53;2621674;54;19947;-67
2022/08/01 00:20:19;;;;;;;;;;;;;;;22.94;49.19;98906.28;2623727;54;19946;-67
2022/08/01 00:22:52;;;;;;;;;;;;;;;22.97;49.07;98903.06;2625145;54;19946;-67
2022/08/01 00:25:21;;;;;;;;;;;;;;;22.94;48.88;98908.97;2626844;39;20356;-67
2022/08/01 00:28:02;;;;;;;;;;;;;;;22.92;48.75;98901.19;2625964;54;19946;-67
2022/08/01 00:30:32;;;;;;;;;;;;;;;22.83;49.31;98907.38;2626293;54;19969;-67
2022/08/01 00:33:02;;;;;;;;;;;;;;;22.81;49.51;98912.19;2626789;54;19980;-66
2022/08/01 00:35:31;;;;;;;;;;;;;;;22.73;49.39;98913.53;2626180;54;20025;-67
2022/08/01 00:38:03;;;;;;;;;;;;;;;22.62;49.92;98914.63;2623274;54;19954;-68
2022/08/01 00:40:32;;;;;;;;;;;;;;;22.58;49.82;98905.47;2623894;39;20397;-68
2022/08/01 00:43:02;;;;;;;;;;;;;;;22.59;50.48;98915.97;2624302;54;19946;-66
2022/08/01 00:45:31;;;;;;;;;;;;;;;22.58;49.97;98914.38;2624146;54;19950;-67
2022/08/01 00:48:00;;;;;;;;;;;;;;;22.55;50.67;98914.09;2623064;47;19965;-67
2022/08/01 00:50:30;;;;;;;;;;;;;;;22.56;50.58;98907.63;2622894;54;19946;-67
2022/08/01 00:53:00;;;;;;;;;;;;;;;22.56;50.68;98910.31;2622345;54;19947;-67
2022/08/01 00:55:33;;;;;;;;;;;;;;;22.48;50.82;98907.06;2624426;54;19947;-66
2022/08/01 00:58:02;;;;;;;;;;;;;;;22.47;50.68;98905.44;2623349;47;19990;-66
2022/08/01 01:00:35;;;;;;;;;;;;;;;22.44;50.52;98899.78;2625735;54;19939;-67
2022/08/01 01:03:22;;;;;;;;;;;;;;;22.46;50.84;98897.66;2625968;47;20429;-67
2022/08/01 01:06:30;;;;;;;;;;;;;;;22.43;51.21;98892.78;2624383;47;19950;-68
2022/08/01 01:09:10;;;;;;;;;;;;;;;22.47;51.36;98899.25;2623420;54;19950;-66
2022/08/01 01:11:46;;;;;;;;;;;;;;;22.42;51.41;98897.38;2623614;54;20424;-66
2022/08/01 01:14:22;;;;;;;;;;;;;;;22.34;51.43;98889.00;2624763;47;19946;-67
2022/08/01 01:16:51;;;;;;;;;;;;;;;22.31;51.62;98898.44;2623200;54;19965;-66
2022/08/01 01:19:25;;;;;;;;;;;;;;;22.28;51.63;98888.19;2623134;54;19977;-66
2022/08/01 01:22:03;;;;;;;;;;;;;;;22.20;51.45;98892.19;2623398;47;19951;-66
2022/08/01 01:24:40;;;;;;;;;;;;;;;22.16;52.40;98891.13;2626253;54;20413;-66
2022/08/01 01:27:12;;;;;;;;;;;;;;;22.15;52.12;98892.19;2624246;54;19939;-66
2022/08/01 01:29:46;;;;;;;;;;;;;;;22.21;51.87;98896.53;2625632;54;20014;-66
2022/08/01 01:32:33;;;;;;;;;;;;;;;22.17;52.41;98895.44;2623641;47;19954;-67
2022/08/01 01:35:04;;;;;;;;;;;;;;;22.19;52.05;98898.66;2622888;54;19942;-66
2022/08/01 01:37:35;;;;;;;;;;;;;;;22.17;52.17;98898.13;2622913;47;19945;-65
2022/08/01 01:40:06;;;;;;;;;;;;;;;22.13;52.57;98897.06;2623525;54;19973;-67
2022/08/01 01:42:37;;;;;;;;;;;;;;;22.06;52.76;98898.34;2624068;54;19938;-66
2022/08/01 01:45:10;;;;;;;;;;;;;;;22.07;52.64;98897.25;2622529;47;19939;-67
2022/08/01 01:47:41;;;;;;;;;;;;;;;22.09;52.99;98903.22;2622134;54;19946;-66
2022/08/01 01:50:11;;;;;;;;;;;;;;;22.08;53.14;98902.38;2622349;54;19939;-66
2022/08/01 01:52:42;;;;;;;;;;;;;;;22.14;52.73;98906.75;2623244;39;20348;-65
2022/08/01 01:55:12;;;;;;;;;;;;;;;22.19;52.87;98916.72;2622572;54;19958;-67
2022/08/01 01:57:43;;;;;;;;;;;;;;;22.16;52.89;98912.66;2622884;54;19938;-67
2022/08/01 02:00:16;;;;;;;;;;;;;;;22.18;52.82;98905.13;2622560;54;19938;-67
2022/08/01 02:02:46;;;;;;;;;;;;;;;22.20;52.55;98904.84;2621515;46;19946;-67
2022/08/01 02:05:16;;;;;;;;;;;;;;;22.16;52.77;98906.47;2621501;54;19953;-68
2022/08/01 02:07:47;;;;;;;;;;;;;;;22.15;52.44;98905.66;2619987;54;19996;-67
2022/08/01 02:10:18;;;;;;;;;;;;;;;22.10;52.69;98908.31;2619776;54;19945;-67
2022/08/01 02:12:57;;;;;;;;;;;;;;;22.09;53.02;98909.41;2619474;54;20429;-68
2022/08/01 02:15:30;;;;;;;;;;;;;;;22.08;53.21;98912.34;2618835;54;19951;-68
2022/08/01 02:18:00;;;;;;;;;;;;;;;22.08;52.94;98910.44;2618375;54;20418;-67
2022/08/01 02:20:31;;;;;;;;;;;;;;;22.11;52.86;98906.44;2618358;54;19939;-70
2022/08/01 02:23:03;;;;;;;;;;;;;;;21.98;53.07;98905.84;2618578;54;20448;-67
2022/08/01 02:25:35;;;;;;;;;;;;;;;21.87;53.24;98908.78;2618690;54;19954;-66
2022/08/01 02:28:07;;;;;;;;;;;;;;;21.74;53.97;98907.38;2618174;54;19954;-69
2022/08/01 02:30:41;;;;;;;;;;;;;;;21.74;54.29;98907.38;2618055;47;19947;-66
2022/08/01 02:33:14;;;;;;;;;;;;;;;21.75;54.43;98906.31;2618823;54;19965;-66
2022/08/01 02:35:46;;;;;;;;;;;;;;;21.81;53.87;98910.66;2624036;54;19951;-67
2022/08/01 02:38:37;;;;;;;;;;;;;;;21.92;53.96;98908.78;2623641;54;19943;-66
2022/08/01 02:41:09;;;;;;;;;;;;;;;21.90;53.39;98917.13;2623565;54;19947;-67
2022/08/01 02:43:40;;;;;;;;;;;;;;;21.79;53.93;98920.03;2622716;54;20479;-67
2022/08/01 02:46:15;;;;;;;;;;;;;;;21.59;54.29;98915.38;2619385;54;20427;-67
2022/08/01 02:48:45;;;;;;;;;;;;;;;21.40;54.92;98913.13;2619226;54;19939;-68
2022/08/01 02:51:15;;;;;;;;;;;;;;;21.38;54.85;98917.94;2619621;54;19977;-67
2022/08/01 02:53:47;;;;;;;;;;;;;;;21.43;54.72;98911.78;2620076;54;19950;-68
2022/08/01 02:56:17;;;;;;;;;;;;;;;21.42;55.18;98923.63;2619792;54;19939;-66
2022/08/01 02:58:48;;;;;;;;;;;;;;;21.35;55.14;98921.19;2619181;54;19954;-66
2022/08/01 03:01:22;;;;;;;;;;;;;;;21.38;55.58;98912.56;2619185;54;19939;-67
2022/08/01 03:03:55;;;;;;;;;;;;;;;21.42;55.00;98918.25;2619658;54;20267;-67
2022/08/01 03:06:26;;;;;;;;;;;;;;;21.41;55.54;98922.81;2619267;54;19977;-68
2022/08/01 03:08:56;;;;;;;;;;;;;;;21.40;55.37;98928.47;2619294;54;19954;-66
2022/08/01 03:11:27;;;;;;;;;;;;;;;21.30;55.22;98923.78;2619677;54;19947;-66
2022/08/01 03:13:57;;;;;;;;;;;;;;;21.22;55.41;98917.00;2619286;54;19954;-66
2022/08/01 03:16:31;;;;;;;;;;;;;;;21.15;55.81;98916.44;2618003;47;19958;-67
2022/08/01 03:19:04;;;;;;;;;;;;;;;21.15;55.97;98932.59;2618650;54;19951;-66
2022/08/01 03:21:34;;;;;;;;;;;;;;;21.08;55.83;98933.88;2619150;54;19938;-66
2022/08/01 03:24:03;;;;;;;;;;;;;;;21.03;56.10;98929.25;2622045;54;19950;-67
2022/08/01 03:26:34;;;;;;;;;;;;;;;21.05;56.11;98931.69;2621942;54;19946;-67
2022/08/01 03:29:06;;;;;;;;;;;;;;;21.08;56.42;98926.59;2622238;54;19947;-67
2022/08/01 03:31:42;;;;;;;;;;;;;;;21.00;56.20;98927.88;2622190;54;19950;-67
2022/08/01 03:34:12;;;;;;;;;;;;;;;21.00;56.60;98929.78;2622370;39;20481;-67
2022/08/01 03:36:47;;;;;;;;;;;;;;;20.97;56.73;98927.59;2621442;54;20428;-67
2022/08/01 03:39:19;;;;;;;;;;;;;;;20.95;56.75;98930.56;2621233;54;19996;-67
2022/08/01 03:41:53;;;;;;;;;;;;;;;21.00;56.81;98929.78;2620167;54;19953;-67
2022/08/01 03:44:26;;;;;;;;;;;;;;;20.92;56.88;98930.25;2621762;54;19991;-66
2022/08/01 03:47:00;;;;;;;;;;;;;;;20.91;56.43;98936.69;2622986;54;19939;-66
2022/08/01 03:49:32;;;;;;;;;;;;;;;20.83;56.88;98942.53;2622718;54;20031;-67
2022/08/01 03:52:04;;;;;;;;;;;;;;;20.77;57.40;98941.66;2622359;47;19977;-67
2022/08/01 03:54:36;;;;;;;;;;;;;;;20.85;57.20;98935.03;2621032;54;19946;-66
2022/08/01 03:57:06;;;;;;;;;;;;;;;20.78;57.33;98941.44;2621116;54;19946;-67
2022/08/01 03:59:38;;;;;;;;;;;;;;;20.77;57.74;98945.16;2623156;39;20360;-67
2022/08/01 04:02:10;;;;;;;;;;;;;;;20.83;57.38;98940.66;2596506;54;19947;-65
2022/08/01 04:04:39;;;;;;;;;;;;;;;20.89;56.86;98938.81;2621154;39;20364;-65
2022/08/01 04:07:23;;;;;;;;;;;;;;;20.89;57.11;98938.81;2620105;54;19942;-65
2022/08/01 04:09:53;;;;;;;;;;;;;;;20.86;57.20;98948.22;2620619;54;19943;-65
2022/08/01 04:12:23;;;;;;;;;;;;;;;20.86;57.38;98942.00;2620888;39;20324;-65
2022/08/01 04:14:52;;;;;;;;;;;;;;;20.85;57.41;98948.44;2620001;54;20421;-66
2022/08/01 10:18:00;;;;;;;;;;;;;;;26.54;41.75;98984.31;2613185;54;29042;-67
2022/08/01 10:20:31;;;;;;;;;;;;;;;26.66;41.63;98981.19;2621876;54;19946;-66
2022/08/01 10:23:02;;;;;;;;;;;;;;;26.63;41.56;98977.13;2621990;54;19939;-66
2022/08/01 10:25:37;;;;;;;;;;;;;;;26.66;41.59;98981.97;2622227;54;20473;-65
2022/08/01 10:28:16;;;;;;;;;;;;;;;26.56;41.25;98987.53;2621998;54;19939;-66
2022/08/01 10:30:46;;;;;;;;;;;;;;;26.43;41.65;98980.09;2622574;54;19954;-65
2022/08/01 10:33:20;;;;;;;;;;;;;;;26.46;41.88;98979.56;2621863;54;19938;-65
2022/08/01 10:36:10;;;;;;;;;;;;;;;26.36;42.28;98982.38;2621152;54;20038;-66
2022/08/01 10:38:39;;;;;;;;;;;;;;;26.30;42.18;98983.53;2622260;54;19946;-65
2022/08/01 10:41:09;;;;;;;;;;;;;;;26.22;42.13;98981.50;2622075;54;19953;-66
2022/08/01 10:43:38;;;;;;;;;;;;;;;26.33;41.70;98983.78;2619607;54;19986;-66
2022/08/01 10:46:09;;;;;;;;;;;;;;;26.40;41.22;98988.81;2620793;31;20553;-66
2022/08/01 10:48:45;;;;;;;;;;;;;;;26.49;41.23;98981.66;2620393;54;19954;-66
2022/08/01 10:51:16;;;;;;;;;;;;;;;26.59;40.99;98981.53;2620482;54;19946;-67
2022/08/01 10:53:52;;;;;;;;;;;;;;;26.57;40.87;98982.91;2620411;54;19946;-66
2022/08/01 10:56:23;;;;;;;;;;;;;;;26.60;40.58;98983.13;2620134;54;19939;-66
2022/08/01 10:59:02;;;;;;;;;;;;;;;26.81;40.51;98977.41;2619483;47;19939;-66
2022/08/01 11:01:40;;;;;;;;;;;;;;;26.92;40.28;98970.72;2620417;54;19977;-66
2022/08/01 11:04:16;;;;;;;;;;;;;;;26.96;40.39;98973.66;2619731;47;19953;-66
2022/08/01 11:06:56;;;;;;;;;;;;;;;26.95;40.25;98966.63;2619877;47;20513;-66
2022/08/01 11:09:28;;;;;;;;;;;;;;;27.17;40.65;98962.19;2619627;54;19946;-66
2022/08/01 11:12:08;;;;;;;;;;;;;;;27.23;39.76;98968.34;2619946;54;19970;-66
2022/08/01 11:15:07;;;;;;;;;;;;;;;27.47;39.48;98968.16;2619733;54;19939;-66
2022/08/01 11:17:37;;;;;;;;;;;;;;;27.57;38.93;98959.03;2619680;54;19946;-66
2022/08/01 11:20:14;;;;;;;;;;;;;;;27.64;38.84;98946.69;2619750;54;19938;-66
2022/08/01 11:23:00;;;;;;;;;;;;;;;27.83;38.61;98953.94;2619406;54;19942;-66
2022/08/01 11:25:48;;;;;;;;;;;;;;;27.72;38.68;98958.75;2619181;54;19939;-68
2022/08/01 11:28:34;;;;;;;;;;;;;;;27.75;39.14;98950.00;2620244;54;19949;-67
2022/08/01 11:31:19;;;;;;;;;;;;;;;27.89;38.00;98950.84;2619098;54;20423;-67
2022/08/01 11:33:52;;;;;;;;;;;;;;;27.89;38.37;98947.31;2619411;39;20318;-68
2022/08/01 11:36:25;;;;;;;;;;;;;;;27.99;37.62;98952.53;2619515;54;19946;-67
2022/08/01 11:39:19;;;;;;;;;;;;;;;28.29;37.22;98942.09;2620800;39;20441;-68
2022/08/01 11:41:49;;;;;;;;;;;;;;;28.69;36.80;98947.75;2619013;54;19973;-67
2022/08/01 11:44:22;;;;;;;;;;;;;;;28.79;36.54;98940.16;2619569;39;20054;-65
2022/08/01 11:46:55;;;;;;;;;;;;;;;28.91;36.44;98936.88;2621144;54;19947;-67
2022/08/01 11:49:24;;;;;;;;;;;;;;;28.64;36.25;98941.31;2621515;39;20345;-68
2022/08/01 11:52:08;;;;;;;;;;;;;;;28.47;36.12;98938.47;2618810;54;19950;-67
2022/08/01 11:54:39;;;;;;;;;;;;;;;28.37;36.65;98930.53;2620483;54;19950;-67
2022/08/01 11:57:10;;;;;;;;;;;;;;;28.21;36.52;98937.38;2621142;39;20365;-67
2022/08/01 11:59:41;;;;;;;;;;;;;;;28.29;36.77;98928.50;2619851;39;20315;-67
2022/08/01 12:02:40;;;;;;;;;;;;;;;28.01;36.81;98925.06;2619911;39;20326;-66
2022/08/01 12:05:11;;;;;;;;;;;;;;;27.97;37.07;98929.50;2619559;54;19939;-66
2022/08/01 12:07:46;;;;;;;;;;;;;;;28.12;36.94;98931.88;2618447;47;19943;-67
2022/08/01 12:10:18;;;;;;;;;;;;;;;28.35;36.61;98921.84;2619639;54;19953;-66
2022/08/01 12:12:48;;;;;;;;;;;;;;;28.50;36.26;98924.25;2618406;54;19950;-66
2022/08/01 12:15:17;;;;;;;;;;;;;;;28.81;36.20;98920.78;2619751;54;19946;-67
2022/08/01 12:17:48;;;;;;;;;;;;;;;28.99;35.61;98913.59;2618194;47;19939;-68
2022/08/01 12:20:28;;;;;;;;;;;;;;;29.11;35.10;98922.00;2620200;54;20050;-67
2022/08/01 12:23:03;;;;;;;;;;;;;;;29.20;35.04;98917.38;2619098;54;19947;-67
2022/08/01 12:25:32;;;;;;;;;;;;;;;29.04;34.99;98921.63;2617915;47;19950;-65
2022/08/01 12:28:05;;;;;;;;;;;;;;;28.82;35.11;98928.66;2618856;47;19946;-66
2022/08/01 12:30:36;;;;;;;;;;;;;;;28.75;35.51;98919.31;2623331;54;20042;-67
2022/08/01 12:33:06;;;;;;;;;;;;;;;29.19;34.79;98910.34;2621517;54;19947;-66
2022/08/01 12:35:36;;;;;;;;;;;;;;;29.33;34.75;98919.19;2622006;47;19939;-66
2022/08/01 12:38:09;;;;;;;;;;;;;;;29.33;34.34;98913.75;2622442;54;19943;-66
2022/08/01 12:40:42;;;;;;;;;;;;;;;29.32;34.74;98916.81;2623461;54;19950;-66
2022/08/01 12:43:18;;;;;;;;;;;;;;;29.44;34.37;98919.75;2620981;54;19945;-66
2022/08/01 12:45:58;;;;;;;;;;;;;;;29.71;34.02;98913.28;2619906;54;19939;-66
2022/08/01 12:48:28;;;;;;;;;;;;;;;30.00;34.25;98911.91;2619630;54;19939;-66
2022/08/01 12:51:00;;;;;;;;;;;;;;;30.34;33.78;98903.00;2619629;54;19978;-67
2022/08/01 12:53:35;;;;;;;;;;;;;;;30.74;32.90;98902.81;2619881;54;19939;-66
2022/08/01 12:56:09;;;;;;;;;;;;;;;30.64;32.39;98903.13;2618624;47;20445;-67
2022/08/01 12:58:40;;;;;;;;;;;;;;;30.47;32.57;98904.75;2619264;47;19943;-68
2022/08/01 13:01:10;;;;;;;;;;;;;;;30.41;32.63;98897.84;2619291;54;19993;-67
2022/08/01 13:03:40;;;;;;;;;;;;;;;30.47;32.62;98893.03;2619844;39;20367;-68
2022/08/01 13:06:14;;;;;;;;;;;;;;;30.16;33.20;98904.91;2619563;54;19947;-66
2022/08/01 13:08:47;;;;;;;;;;;;;;;30.02;32.83;98905.03;2620133;39;20338;-67
2022/08/01 13:11:18;;;;;;;;;;;;;;;29.97;33.03;98904.38;2620763;39;20342;-67
2022/08/01 13:13:49;;;;;;;;;;;;;;;29.77;33.05;98908.50;2619741;54;19982;-66
2022/08/01 13:16:19;;;;;;;;;;;;;;;29.58;33.31;98909.56;2619462;54;19946;-66
2022/08/01 13:19:07;;;;;;;;;;;;;;;29.71;33.21;98902.38;2619684;54;19949;-66
2022/08/01 13:21:36;;;;;;;;;;;;;;;29.84;33.09;98903.38;2619154;54;19947;-66
2022/08/01 13:24:29;;;;;;;;;;;;;;;29.96;33.12;98902.75;2619660;54;19946;-66
2022/08/01 13:27:03;;;;;;;;;;;;;;;30.09;32.64;98896.38;2619535;54;19946;-67
2022/08/01 13:29:34;;;;;;;;;;;;;;;30.09;32.60;98899.91;2620121;39;20370;-66
2022/08/01 13:32:15;;;;;;;;;;;;;;;30.08;32.59;98900.22;2620033;54;19954;-67
2022/08/01 13:35:05;;;;;;;;;;;;;;;30.25;32.50;98899.44;2618854;47;19981;-67
2022/08/01 13:37:34;;;;;;;;;;;;;;;30.23;32.45;98893.53;2619131;54;19947;-67
2022/08/01 13:40:10;;;;;;;;;;;;;;;30.03;32.85;98903.09;2619685;54;19946;-66
2022/08/01 13:42:39;;;;;;;;;;;;;;;29.80;33.16;98902.41;2619625;54;19942;-64
2022/08/01 13:45:10;;;;;;;;;;;;;;;29.55;33.58;98899.25;2620029;54;19961;-65
2022/08/01 13:47:43;;;;;;;;;;;;;;;29.47;33.34;98886.41;2619623;54;19971;-65
2022/08/01 13:50:32;;;;;;;;;;;;;;;29.55;34.06;98893.81;2619718;54;20038;-65
2022/08/01 13:53:02;;;;;;;;;;;;;;;29.55;33.50;98884.84;2619507;54;20449;-65
2022/08/01 13:55:34;;;;;;;;;;;;;;;29.40;33.71;98888.00;2619978;54;19947;-65
2022/08/01 13:58:04;;;;;;;;;;;;;;;29.34;33.64;98887.34;2618851;54;20087;-67
2022/08/01 14:00:34;;;;;;;;;;;;;;;29.38;34.04;98894.56;2619644;54;19945;-66
2022/08/01 14:03:04;;;;;;;;;;;;;;;29.34;34.26;98893.56;2619155;54;19947;-66
2022/08/01 14:05:33;;;;;;;;;;;;;;;29.42;33.73;98891.22;2619418;54;19946;-67
2022/08/01 14:08:02;;;;;;;;;;;;;;;29.32;33.98;98889.56;2620096;39;20362;-66
2022/08/01 14:10:35;;;;;;;;;;;;;;;29.27;33.61;98895.97;2619901;54;19943;-67
2022/08/01 14:13:04;;;;;;;;;;;;;;;29.23;34.00;98896.88;2619349;47;20453;-66
2022/08/01 14:15:34;;;;;;;;;;;;;;;29.43;34.12;98893.59;2619911;54;20005;-66
2022/08/01 14:18:07;;;;;;;;;;;;;;;29.35;33.84;98894.38;2618539;47;19973;-67
2022/08/01 14:20:38;;;;;;;;;;;;;;;29.43;33.60;98892.81;2620777;39;20369;-67
2022/08/01 14:23:07;;;;;;;;;;;;;;;29.38;33.39;98902.72;2621153;54;19953;-66
2022/08/01 14:25:41;;;;;;;;;;;;;;;29.27;33.36;98897.84;2623830;39;20436;-67
2022/08/01 14:28:30;;;;;;;;;;;;;;;29.32;33.94;98905.91;2622668;39;20345;-66
2022/08/01 14:30:59;;;;;;;;;;;;;;;29.31;33.74;98894.22;2623135;54;19946;-68
2022/08/01 14:33:30;;;;;;;;;;;;;;;29.17;34.09;98900.88;2623733;54;19945;-66
2022/08/01 14:36:02;;;;;;;;;;;;;;;29.03;34.34;98896.31;2624743;54;19953;-67
2022/08/01 14:38:51;;;;;;;;;;;;;;;29.01;34.83;98908.63;2624845;54;19950;-65
2022/08/01 14:41:23;;;;;;;;;;;;;;;28.80;34.52;98898.22;2623344;54;20464;-66
2022/08/01 14:43:53;;;;;;;;;;;;;;;28.72;34.76;98904.41;2621811;54;19939;-66
2022/08/01 14:46:22;;;;;;;;;;;;;;;28.74;34.71;98901.38;2621744;54;19947;-66
2022/08/01 14:48:54;;;;;;;;;;;;;;;28.57;35.01;98902.06;2622689;54;19946;-66
2022/08/01 14:51:24;;;;;;;;;;;;;;;28.38;34.95;98904.97;2622103;54;19950;-66
2022/08/01 14:53:53;;;;;;;;;;;;;;;28.30;35.56;98909.19;2621433;54;19990;-67
2022/08/01 14:56:25;;;;;;;;;;;;;;;28.14;35.69;98902.50;2620954;54;19954;-67
2022/08/01 14:58:54;;;;;;;;;;;;;;;28.11;36.17;98909.34;2621763;54;19954;-66
2022/08/01 15:01:24;;;;;;;;;;;;;;;27.90;36.16;98906.25;2623399;39;20331;-66
2022/08/01 15:03:53;;;;;;;;;;;;;;;27.85;35.95;98900.94;2623080;54;19939;-65
2022/08/01 15:06:23;;;;;;;;;;;;;;;27.90;36.13;98902.72;2622784;54;19946;-67
2022/08/01 15:08:52;;;;;;;;;;;;;;;27.89;36.06;98899.22;2623397;54;19945;-67
2022/08/01 15:11:23;;;;;;;;;;;;;;;27.90;36.64;98900.03;2625921;39;19998;-67
2022/08/01 15:16:47;;;;;;;;;;;;;;;27.77;36.97;98888.06;2622013;54;20015;-65
2022/08/01 15:19:16;;;;;;;;;;;;;;;27.79;36.95;98893.97;2620378;54;19939;-65
2022/08/01 15:21:46;;;;;;;;;;;;;;;27.71;37.26;98897.38;2619377;54;19939;-65
2022/08/01 15:24:15;;;;;;;;;;;;;;;27.65;37.06;98904.84;2619046;54;19946;-65
2022/08/01 15:26:45;;;;;;;;;;;;;;;27.47;37.89;98902.22;2618592;54;19951;-67
2022/08/01 15:29:17;;;;;;;;;;;;;;;27.46;37.38;98903.31;2618763;54;19946;-66
2022/08/01 15:31:46;;;;;;;;;;;;;;;27.51;37.40;98904.03;2619138;54;19962;-66
2022/08/01 15:34:16;;;;;;;;;;;;;;;27.34;37.47;98907.34;2620276;54;19954;-65
2022/08/01 15:36:45;;;;;;;;;;;;;;;27.33;37.34;98897.59;2619341;54;19957;-66
2022/08/01 15:39:17;;;;;;;;;;;;;;;27.25;37.46;98908.34;2620712;54;19946;-66
2022/08/01 15:41:46;;;;;;;;;;;;;;;27.22;37.66;98896.16;2619689;47;19938;-68
2022/08/01 15:44:19;;;;;;;;;;;;;;;27.14;38.13;98900.38;2620565;54;19947;-67
2022/08/01 15:46:49;;;;;;;;;;;;;;;27.06;38.28;98901.03;2620061;54;19945;-67
2022/08/01 15:49:21;;;;;;;;;;;;;;;27.00;38.14;98893.28;2619667;47;19957;-67
2022/08/01 15:51:51;;;;;;;;;;;;;;;26.99;38.26;98897.13;2620086;54;19946;-67
2022/08/01 15:54:21;;;;;;;;;;;;;;;26.94;37.95;98895.28;2620382;54;19938;-67
2022/08/01 15:56:50;;;;;;;;;;;;;;;26.91;38.05;98896.69;2620325;47;19946;-68
2022/08/01 15:59:22;;;;;;;;;;;;;;;26.98;38.10;98898.19;2619612;54;19946;-68
2022/08/01 16:01:52;;;;;;;;;;;;;;;26.92;38.27;98900.22;2619364;54;19974;-67
2022/08/01 16:04:21;;;;;;;;;;;;;;;26.90;38.26;98899.69;2619640;54;19938;-68
2022/08/01 16:06:58;;;;;;;;;;;;;;;26.81;38.42;98891.44;2618412;54;20011;-66
2022/08/01 16:09:27;;;;;;;;;;;;;;;26.76;38.37;98890.72;2618713;39;20350;-66
2022/08/01 16:11:56;;;;;;;;;;;;;;;26.78;38.30;98894.75;2618870;54;20015;-66
2022/08/01 16:14:28;;;;;;;;;;;;;;;26.81;38.33;98893.34;2618806;54;19939;-66
2022/08/01 16:16:58;;;;;;;;;;;;;;;26.78;38.47;98894.75;2619311;54;19946;-66
2022/08/01 16:19:27;;;;;;;;;;;;;;;26.75;38.74;98898.06;2619509;54;19938;-67
2022/08/01 16:21:59;;;;;;;;;;;;;;;26.71;38.88;98896.22;2619421;54;19953;-68
2022/08/01 16:24:29;;;;;;;;;;;;;;;26.62;38.96;98888.78;2619169;54;19938;-68
2022/08/01 16:26:59;;;;;;;;;;;;;;;26.56;39.57;98906.22;2618892;54;20462;-68
2022/08/01 16:29:31;;;;;;;;;;;;;;;26.56;39.92;98897.28;2619328;54;20559;-68
2022/08/01 16:32:01;;;;;;;;;;;;;;;26.65;39.62;98890.06;2624142;39;20364;-68
2022/08/01 16:34:38;;;;;;;;;;;;;;;26.75;39.53;98887.22;2623198;54;20418;-67
2022/08/01 16:37:15;;;;;;;;;;;;;;;26.72;39.84;98887.78;2619453;54;19995;-66
2022/08/01 16:39:45;;;;;;;;;;;;;;;26.67;39.93;98883.25;2619436;54;19982;-67
2022/08/01 16:42:15;;;;;;;;;;;;;;;26.72;40.13;98884.28;2618655;54;20473;-67
2022/08/01 16:44:47;;;;;;;;;;;;;;;26.75;39.79;98881.78;2618746;47;19938;-67
2022/08/01 16:47:17;;;;;;;;;;;;;;;26.79;40.16;98871.16;2618945;54;19946;-67
2022/08/01 16:49:47;;;;;;;;;;;;;;;26.70;40.19;98872.91;2618802;54;19998;-68
2022/08/01 16:52:17;;;;;;;;;;;;;;;26.59;40.71;98873.09;2619389;54;20462;-68
2022/08/01 16:54:47;;;;;;;;;;;;;;;26.56;40.54;98875.59;2619181;54;19942;-67
2022/08/01 16:57:16;;;;;;;;;;;;;;;26.45;40.87;98882.25;2619046;54;19958;-67
2022/08/01 16:59:48;;;;;;;;;;;;;;;26.46;40.99;98879.28;2618064;54;19939;-65
2022/08/01 17:02:18;;;;;;;;;;;;;;;26.44;41.29;98881.44;2621250;54;19947;-65
2022/08/01 17:04:48;;;;;;;;;;;;;;;26.44;40.91;98886.84;2619498;54;20010;-65
2022/08/01 17:07:17;;;;;;;;;;;;;;;26.49;41.23;98875.94;2619685;54;19943;-66
2022/08/01 17:09:46;;;;;;;;;;;;;;;26.58;40.79;98876.91;2620343;54;20445;-66
2022/08/01 17:12:16;;;;;;;;;;;;;;;26.73;40.54;98883.16;2621613;54;19959;-68
2022/08/01 17:14:53;;;;;;;;;;;;;;;26.82;40.42;98875.97;2621938;54;19977;-68
2022/08/01 17:17:22;;;;;;;;;;;;;;;26.87;40.46;98878.59;2622833;54;19953;-66
2022/08/01 17:19:53;;;;;;;;;;;;;;;26.90;40.78;98881.53;2622971;54;19939;-66
2022/08/01 17:22:22;;;;;;;;;;;;;;;27.04;40.39;98872.59;2623208;54;19946;-66
2022/08/01 17:24:52;;;;;;;;;;;;;;;27.14;40.35;98880.56;2622476;39;20354;-66
2022/08/01 17:27:21;;;;;;;;;;;;;;;27.07;40.27;98877.44;2623771;54;19939;-67
2022/08/01 17:29:53;;;;;;;;;;;;;;;27.10;40.67;98880.38;2623947;54;19969;-67
2022/08/01 17:32:23;;;;;;;;;;;;;;;27.10;40.47;98877.66;2622472;47;19955;-67
2022/08/01 17:34:52;;;;;;;;;;;;;;;27.13;40.46;98874.34;2623372;46;19939;-65
2022/08/01 17:37:21;;;;;;;;;;;;;;;27.08;40.54;98877.13;2623843;54;19939;-66
2022/08/01 17:39:51;;;;;;;;;;;;;;;27.01;40.77;98879.44;2624478;54;19947;-68
2022/08/01 17:42:20;;;;;;;;;;;;;;;26.78;41.28;98880.38;2623367;54;19942;-69
2022/08/01 17:44:50;;;;;;;;;;;;;;;26.47;41.72;98885.50;2624738;54;19962;-66
2022/08/01 17:47:24;;;;;;;;;;;;;;;26.47;41.77;98886.28;2626489;39;20353;-68
2022/08/01 17:50:14;;;;;;;;;;;;;;;26.37;42.01;98886.41;2624229;54;19998;-67
2022/08/01 17:52:44;;;;;;;;;;;;;;;26.32;42.52;98890.00;2623565;54;19950;-66
2022/08/01 17:55:14;;;;;;;;;;;;;;;26.21;42.52;98895.84;2624588;54;19950;-67
2022/08/01 17:58:04;;;;;;;;;;;;;;;26.08;42.55;98900.91;2624537;54;20037;-67
2022/08/01 18:00:35;;;;;;;;;;;;;;;26.13;42.49;98895.44;2624090;54;19947;-67
2022/08/01 18:03:07;;;;;;;;;;;;;;;26.16;42.98;98902.97;2623281;54;19974;-67
2022/08/01 18:05:37;;;;;;;;;;;;;;;26.15;42.71;98904.06;2624580;54;19939;-67
2022/08/01 18:08:07;;;;;;;;;;;;;;;26.11;42.67;98911.16;2626739;39;20358;-68
2022/08/01 18:10:36;;;;;;;;;;;;;;;26.14;42.86;98917.91;2623221;54;19946;-68
2022/08/01 18:13:08;;;;;;;;;;;;;;;26.16;42.60;98913.00;2620600;54;19953;-67
2022/08/01 18:15:38;;;;;;;;;;;;;;;26.11;43.06;98913.06;2620259;54;19946;-68
2022/08/01 18:18:12;;;;;;;;;;;;;;;26.14;42.86;98916.00;2620043;54;19985;-67
2022/08/01 18:20:42;;;;;;;;;;;;;;;26.13;43.00;98921.72;2619875;47;20453;-69
2022/08/01 18:23:11;;;;;;;;;;;;;;;26.04;42.88;98918.03;2620552;39;20330;-67
2022/08/01 18:25:41;;;;;;;;;;;;;;;26.05;43.31;98915.06;2619593;47;19950;-67
2022/08/01 18:28:10;;;;;;;;;;;;;;;25.96;43.09;98913.28;2619487;54;19947;-67
2022/08/01 18:30:59;;;;;;;;;;;;;;;25.86;43.31;98920.44;2620177;54;19961;-68
2022/08/01 18:33:31;;;;;;;;;;;;;;;25.85;43.43;98918.84;2619679;54;19950;-66
2022/08/01 18:36:01;;;;;;;;;;;;;;;25.80;43.57;98920.78;2620112;39;20370;-67
2022/08/01 18:38:32;;;;;;;;;;;;;;;25.75;43.96;98926.22;2619747;54;19939;-68
2022/08/01 18:41:09;;;;;;;;;;;;;;;25.77;43.65;98927.59;2619389;54;20045;-68
2022/08/01 18:43:38;;;;;;;;;;;;;;;25.78;44.06;98920.28;2619912;39;20012;-70
2022/08/01 18:46:08;;;;;;;;;;;;;;;25.83;44.06;98939.16;2619550;54;19939;-66
2022/08/01 18:48:40;;;;;;;;;;;;;;;25.77;44.18;98934.88;2619732;54;20437;-67
2022/08/01 18:51:10;;;;;;;;;;;;;;;25.60;44.46;98944.28;2620204;54;19990;-67
2022/08/01 18:53:41;;;;;;;;;;;;;;;25.61;44.73;98937.75;2619702;54;19947;-68
2022/08/01 18:56:15;;;;;;;;;;;;;;;25.61;44.37;98940.47;2618500;47;19995;-68
2022/08/01 18:58:44;;;;;;;;;;;;;;;25.55;44.63;98935.38;2618671;47;19950;-69
2022/08/01 19:01:14;;;;;;;;;;;;;;;25.54;44.72;98933.78;2619453;54;20446;-67
2022/08/01 19:03:46;;;;;;;;;;;;;;;25.50;44.83;98938.16;2619014;54;20470;-66
2022/08/01 19:06:15;;;;;;;;;;;;;;;25.44;44.73;98940.94;2619084;54;19950;-69
2022/08/01 19:08:45;;;;;;;;;;;;;;;25.36;45.03;98946.97;2618609;47;20063;-69
2022/08/01 19:11:14;;;;;;;;;;;;;;;25.28;45.29;98949.50;2619198;54;19993;-68
2022/08/01 19:13:43;;;;;;;;;;;;;;;25.23;45.39;98954.94;2618906;47;19950;-68
2022/08/01 19:16:15;;;;;;;;;;;;;;;25.19;45.52;98952.00;2618932;54;19943;-69
2022/08/01 19:18:47;;;;;;;;;;;;;;;25.22;45.70;98959.53;2618710;54;19947;-67